createdAt,value
2019-04-14T00:00:51.461Z,5.40
2019-04-14T00:03:43.298Z,4.70
2019-04-14T00:06:11.314Z,4.70
2019-04-14T00:08:39.516Z,5.50
2019-04-14T00:11:08.227Z,4.80
2019-04-14T00:13:35.610Z,5.30
2019-04-14T00:16:03.128Z,6.00
2019-04-14T00:18:31.372Z,6.60
2019-04-14T00:20:59.844Z,7.30
2019-04-14T00:23:28.223Z,7.70
2019-04-14T00:26:27.200Z,9.50
2019-04-14T00:28:56.176Z,9.60
2019-04-14T00:31:24.291Z,10.20
2019-04-14T00:33:54.294Z,8.80
2019-04-14T00:36:48.143Z,9.50
2019-04-14T00:39:20.475Z,9.30
2019-04-14T00:42:21.220Z,8.60
2019-04-14T00:45:11.561Z,10.40
2019-04-14T00:47:57.214Z,13.50
2019-04-14T00:50:18.945Z,14.90
2019-04-14T00:52:48.039Z,14.50
2019-04-14T00:55:16.492Z,14.50
2019-04-14T00:57:44.755Z,16.00
2019-04-14T01:00:16.947Z,17.80
2019-04-14T01:02:43.210Z,18.30
2019-04-14T01:05:15.085Z,18.80
2019-04-14T01:07:45.741Z,19.50
2019-04-14T01:10:14.868Z,19.10
2019-04-14T01:12:43.352Z,20.40
2019-04-14T01:15:11.797Z,21.50
2019-04-14T01:17:41.677Z,21.20
2019-04-14T01:20:12.390Z,21.50
2019-04-14T01:22:40.743Z,23.10
2019-04-14T01:25:09.056Z,25.20
2019-04-14T01:27:38.248Z,27.40
2019-04-14T01:30:08.838Z,26.90
2019-04-14T01:32:37.281Z,29.00
2019-04-14T01:35:05.483Z,28.30
2019-04-14T01:37:33.464Z,27.50
2019-04-14T01:40:01.610Z,27.40
2019-04-14T01:42:30.967Z,27.40
2019-04-14T01:44:59.454Z,26.30
2019-04-14T01:47:27.425Z,27.50
2019-04-14T01:49:55.322Z,27.60
2019-04-14T01:52:32.411Z,27.50
2019-04-14T01:55:22.876Z,27.50
2019-04-14T01:58:01.042Z,26.80
2019-04-14T02:00:46.713Z,27.30
2019-04-14T02:03:15.478Z,28.50
2019-04-14T02:05:43.749Z,28.40
2019-04-14T02:08:11.835Z,27.60
2019-04-14T02:10:41.179Z,27.60
2019-04-14T02:13:09.413Z,27.50
2019-04-14T02:15:37.563Z,29.20
2019-04-14T02:18:05.787Z,29.30
2019-04-14T02:20:33.976Z,28.50
2019-04-14T02:23:02.240Z,27.80
2019-04-14T02:25:31.659Z,27.60
2019-04-14T02:28:00.302Z,28.60
2019-04-14T02:30:36.641Z,27.80
2019-04-14T02:33:37.816Z,28.60
2019-04-14T02:41:04.311Z,29.20
2019-04-14T02:43:30.113Z,29.70
2019-04-14T02:48:44.782Z,29.40
2019-04-14T02:51:07.695Z,29.70
2019-04-14T02:53:55.161Z,29.50
2019-04-14T02:56:08.564Z,29.90
2019-04-14T02:58:40.396Z,29.50
2019-04-14T03:01:10.122Z,30.20
2019-04-14T03:03:31.754Z,29.80
2019-04-14T03:06:10.315Z,28.90
2019-04-14T03:08:45.289Z,28.40
2019-04-14T03:11:06.469Z,28.70
2019-04-14T03:13:35.123Z,29.90
2019-04-14T03:16:01.983Z,30.10
2019-04-14T03:24:30.704Z,31.60
2019-04-14T03:27:05.003Z,32.00
2019-04-14T03:29:39.250Z,32.60
2019-04-14T03:34:42.449Z,31.90
2019-04-14T03:37:31.128Z,32.60
2019-04-14T03:39:51.208Z,32.60
2019-04-14T03:42:01.612Z,31.40
2019-04-14T03:44:34.645Z,29.30
2019-04-14T03:49:32.230Z,28.60
2019-04-14T03:52:19.564Z,28.40
2019-04-14T03:54:20.164Z,29.30
2019-04-14T03:56:49.028Z,30.00
2019-04-14T03:59:17.561Z,30.10
2019-04-14T04:01:45.696Z,30.10
2019-04-14T04:04:14.395Z,28.80
2019-04-14T04:06:42.175Z,28.30
2019-04-14T04:09:10.449Z,28.60
2019-04-14T04:11:38.921Z,28.00
2019-04-14T04:14:07.438Z,28.30
2019-04-14T04:16:55.140Z,29.00
2019-04-14T04:19:49.170Z,27.40
2019-04-14T04:22:36.908Z,27.50
2019-04-14T04:25:19.021Z,29.00
2019-04-14T04:28:14.518Z,28.90
2019-04-14T04:31:04.547Z,31.40
2019-04-14T04:33:43.627Z,32.40
2019-04-14T04:36:16.029Z,32.20
2019-04-14T04:39:06.123Z,33.50
2019-04-14T04:41:33.955Z,32.20
2019-04-14T04:44:01.244Z,31.80
2019-04-14T04:46:28.780Z,32.10
2019-04-14T04:49:03.204Z,32.60
2019-04-14T04:51:24.942Z,32.10
2019-04-14T04:53:52.765Z,36.30
2019-04-14T04:56:20.797Z,35.10
2019-04-14T04:58:48.101Z,35.10
2019-04-14T05:01:15.218Z,35.70
2019-04-14T05:03:42.885Z,34.50
2019-04-14T05:06:53.155Z,33.90
2019-04-14T05:09:43.221Z,35.00
2019-04-14T05:12:41.217Z,34.70
2019-04-14T05:15:29.099Z,36.30
2019-04-14T05:18:00.440Z,35.70
2019-04-14T05:20:29.198Z,34.60
2019-04-14T05:22:57.316Z,33.60
2019-04-14T05:25:25.463Z,32.40
2019-04-14T05:27:53.794Z,33.00
2019-04-14T05:30:22.196Z,30.70
2019-04-14T05:32:50.382Z,29.90
2019-04-14T05:35:18.652Z,29.90
2019-04-14T05:37:46.863Z,29.00
2019-04-14T05:40:16.660Z,30.00
2019-04-14T05:42:45.124Z,32.70
2019-04-14T05:45:13.759Z,31.40
2019-04-14T05:47:43.567Z,32.60
2019-04-14T05:50:11.865Z,33.40
2019-04-14T05:52:40.466Z,31.80
2019-04-14T05:55:08.964Z,30.30
2019-04-14T05:57:37.346Z,30.00
2019-04-14T06:00:10.552Z,30.00
2019-04-14T06:02:39.905Z,29.10
2019-04-14T06:05:09.156Z,27.10
2019-04-14T06:07:38.356Z,28.30
2019-04-14T06:10:06.926Z,28.20
2019-04-14T06:12:34.952Z,28.20
2019-04-14T06:15:04.512Z,28.10
2019-04-14T06:17:32.540Z,27.70
2019-04-14T06:20:00.690Z,27.20
2019-04-14T06:22:29.079Z,27.70
2019-04-14T06:24:57.163Z,27.20
2019-04-14T06:27:25.507Z,26.50
2019-04-14T06:29:57.460Z,24.40
2019-04-14T06:32:31.118Z,25.00
2019-04-14T06:35:18.299Z,26.00
2019-04-14T06:37:56.289Z,25.50
2019-04-14T06:40:25.286Z,23.70
2019-04-14T06:42:53.225Z,22.40
2019-04-14T06:45:21.619Z,22.50
2019-04-14T06:47:49.624Z,21.90
2019-04-14T06:50:19.855Z,23.60
2019-04-14T06:52:48.218Z,24.10
2019-04-14T06:55:16.641Z,20.80
2019-04-14T06:57:45.754Z,18.70
2019-04-14T07:00:13.958Z,17.90
2019-04-14T07:02:42.224Z,17.90
2019-04-14T07:05:10.549Z,17.30
2019-04-14T07:07:39.030Z,17.80
2019-04-14T07:10:07.506Z,17.90
2019-04-14T07:12:35.583Z,18.10
2019-04-14T07:15:04.708Z,18.70
2019-04-14T07:17:32.775Z,17.80
2019-04-14T07:20:02.406Z,15.50
2019-04-14T07:22:30.941Z,8.60
2019-04-14T07:25:00.078Z,11.40
2019-04-14T07:27:28.049Z,13.10
2019-04-14T07:30:28.050Z,9.70
2019-04-14T07:33:23.504Z,8.80
2019-04-14T07:35:58.685Z,7.20
2019-04-14T07:38:32.494Z,1.00
2019-04-14T07:41:22.502Z,1.00
2019-04-14T07:44:00.072Z,1.00
2019-04-14T07:46:42.786Z,1.00
2019-04-14T07:49:48.431Z,1.00
2019-04-14T07:52:32.265Z,1.00
2019-04-14T07:55:31.278Z,1.00
2019-04-14T07:58:12.058Z,1.00
2019-04-14T08:00:57.646Z,1.00
2019-04-14T08:03:34.724Z,1.00
2019-04-14T08:06:02.863Z,1.00
2019-04-14T08:08:30.319Z,1.00
2019-04-14T08:10:58.003Z,1.00
2019-04-14T08:13:26.778Z,1.00
2019-04-14T08:15:54.457Z,1.00
2019-04-14T08:18:22.003Z,1.00
2019-04-14T08:20:50.182Z,1.00
2019-04-14T08:23:18.065Z,1.00
2019-04-14T08:25:45.711Z,1.00
2019-04-14T08:28:13.469Z,1.00
2019-04-14T08:30:41.415Z,1.00
2019-04-14T08:33:09.624Z,1.00
2019-04-14T08:35:37.005Z,1.00
2019-04-14T08:38:05.574Z,1.00
2019-04-14T08:40:33.258Z,1.00
2019-04-14T08:43:16.526Z,1.00
2019-04-14T08:45:50.927Z,1.00
2019-04-14T08:48:40.643Z,1.00
2019-04-14T08:51:15.202Z,1.00
2019-04-14T08:53:46.279Z,1.00
2019-04-14T08:56:18.213Z,1.00
2019-04-14T08:59:20.983Z,1.00
2019-04-14T09:01:57.179Z,1.00
2019-04-14T09:04:33.448Z,1.00
2019-04-14T09:07:33.426Z,1.00
2019-04-14T09:10:14.619Z,1.00
2019-04-14T09:12:42.654Z,1.00
2019-04-14T09:15:09.949Z,1.00
2019-04-14T09:17:37.154Z,1.00
2019-04-14T09:20:04.726Z,1.00
2019-04-14T09:22:32.796Z,1.00
2019-04-14T09:25:00.076Z,1.00
2019-04-14T09:27:28.126Z,1.00
2019-04-14T09:29:55.758Z,1.00
2019-04-14T09:32:23.877Z,1.00
2019-04-14T09:34:51.990Z,1.00
2019-04-14T09:37:19.585Z,1.00
2019-04-14T09:39:48.574Z,1.00
2019-04-14T09:42:17.849Z,1.00
2019-04-14T09:44:46.423Z,1.00
2019-04-14T09:47:14.434Z,1.00
2019-04-14T09:49:53.158Z,1.00
2019-04-14T09:52:21.132Z,1.00
2019-04-14T09:54:48.691Z,1.00
2019-04-14T09:57:16.859Z,1.00
2019-04-14T09:59:49.598Z,1.00
2019-04-14T10:02:17.131Z,1.00
2019-04-14T10:04:45.026Z,1.00
2019-04-14T10:07:13.244Z,1.00
2019-04-14T10:09:43.729Z,1.00
2019-04-14T10:12:11.559Z,1.00
2019-04-14T10:14:38.511Z,1.00
2019-04-14T10:17:05.477Z,1.00
2019-04-14T10:19:32.574Z,1.00
2019-04-14T10:21:59.720Z,1.00
2019-04-14T10:24:31.828Z,1.00
2019-04-14T10:26:58.902Z,1.00
2019-04-14T10:29:25.991Z,1.00
2019-04-14T10:31:53.472Z,1.00
2019-04-14T10:34:20.491Z,1.00
2019-04-14T10:36:54.500Z,1.00
2019-04-14T10:39:22.334Z,1.00
2019-04-14T10:41:49.788Z,1.00
2019-04-14T10:44:18.007Z,1.00
2019-04-14T10:46:45.940Z,1.00
2019-04-14T10:49:13.542Z,1.00
2019-04-14T10:51:42.663Z,1.00
2019-04-14T10:54:11.840Z,1.00
2019-04-14T10:56:40.747Z,1.00
2019-04-14T10:59:09.991Z,1.00
2019-04-14T11:01:37.124Z,1.00
2019-04-14T11:04:07.915Z,1.00
2019-04-14T11:06:39.009Z,1.00
2019-04-14T11:09:14.052Z,1.00
2019-04-14T11:11:43.182Z,1.00
2019-04-14T11:14:11.970Z,1.00
2019-04-14T11:16:40.475Z,1.00
2019-04-14T11:19:07.763Z,1.00
2019-04-14T11:21:42.608Z,1.00
2019-04-14T11:24:10.384Z,1.00
2019-04-14T11:26:39.048Z,1.00
2019-04-14T11:29:08.383Z,1.00
2019-04-14T11:31:54.291Z,1.00
2019-04-14T11:34:25.660Z,1.00
2019-04-14T11:37:14.129Z,1.00
2019-04-14T11:39:42.564Z,1.00
2019-04-14T11:42:10.530Z,1.00
2019-04-14T11:44:42.793Z,1.00
2019-04-14T11:47:11.663Z,1.00
2019-04-14T11:49:40.096Z,1.00
2019-04-14T11:52:08.962Z,1.00
2019-04-14T11:54:38.004Z,1.00
2019-04-14T11:57:06.862Z,1.00
2019-04-14T11:59:51.197Z,1.00
2019-04-14T12:02:23.704Z,1.00
2019-04-14T12:04:56.170Z,1.00
2019-04-14T12:07:48.273Z,1.00
2019-04-14T12:10:18.415Z,1.00
2019-04-14T12:12:50.551Z,1.00
2019-04-14T12:15:18.197Z,1.00
2019-04-14T12:17:46.348Z,1.00
2019-04-14T12:20:13.762Z,1.00
2019-04-14T12:22:41.980Z,1.00
2019-04-14T12:25:10.134Z,1.00
2019-04-14T12:27:38.066Z,1.00
2019-04-14T12:30:13.766Z,1.00
2019-04-14T12:32:41.716Z,1.00
2019-04-14T12:35:14.646Z,1.00
2019-04-14T12:37:41.956Z,1.00
2019-04-14T12:40:10.525Z,1.00
2019-04-14T12:43:06.243Z,1.00
2019-04-14T12:45:55.699Z,1.00
2019-04-14T12:48:46.446Z,1.00
2019-04-14T12:51:20.644Z,1.00
2019-04-14T12:53:48.944Z,1.00
2019-04-14T12:56:25.590Z,1.00
2019-04-14T12:59:16.701Z,1.00
2019-04-14T13:02:23.784Z,1.00
2019-04-14T13:04:51.246Z,1.00
2019-04-14T13:07:20.217Z,1.00
2019-04-14T13:09:50.580Z,1.00
2019-04-14T13:12:17.890Z,1.00
2019-04-14T13:14:45.319Z,1.00
2019-04-14T13:17:13.714Z,1.00
2019-04-14T13:19:41.628Z,1.00
2019-04-14T13:22:09.370Z,1.00
2019-04-14T13:24:36.526Z,1.00
2019-04-14T13:27:04.462Z,1.00
2019-04-14T13:29:32.629Z,1.00
2019-04-14T13:31:59.683Z,1.00
2019-04-14T13:34:29.882Z,1.00
2019-04-14T13:36:59.210Z,1.00
2019-04-14T13:39:26.564Z,1.00
2019-04-14T13:41:53.911Z,1.00
2019-04-14T13:44:27.341Z,1.00
2019-04-14T13:46:57.920Z,1.00
2019-04-14T13:49:25.413Z,1.00
2019-04-14T13:51:52.740Z,1.00
2019-04-14T13:54:20.114Z,1.00
2019-04-14T13:56:47.812Z,1.00
2019-04-14T13:59:15.051Z,1.00
2019-04-14T14:01:47.444Z,1.00
2019-04-14T14:04:14.497Z,1.00
2019-04-14T14:06:41.781Z,1.00
2019-04-14T14:09:11.637Z,1.00
2019-04-14T14:12:01.205Z,1.00
2019-04-14T14:14:51.022Z,1.00
2019-04-14T14:17:30.803Z,1.00
2019-04-14T14:20:06.011Z,1.00
2019-04-14T14:22:38.050Z,1.00
2019-04-14T14:25:19.982Z,1.00
2019-04-14T14:27:47.374Z,1.00
2019-04-14T14:30:17.425Z,1.00
2019-04-14T14:32:44.538Z,1.00
2019-04-14T14:35:12.219Z,1.00
2019-04-14T14:37:39.171Z,1.00
2019-04-14T14:40:06.838Z,1.00
2019-04-14T14:42:33.921Z,1.00
2019-04-14T14:45:32.703Z,1.00
2019-04-14T14:48:11.632Z,1.00
2019-04-14T14:50:51.956Z,1.00
2019-04-14T14:53:22.107Z,1.00
2019-04-14T14:55:48.313Z,1.00
2019-04-14T14:58:15.905Z,1.00
2019-04-14T15:00:43.938Z,1.00
2019-04-14T15:03:11.675Z,1.00
2019-04-14T15:05:38.852Z,1.00
2019-04-14T15:08:06.025Z,1.00
2019-04-14T15:10:37.330Z,1.00
2019-04-14T15:13:04.974Z,1.00
2019-04-14T15:15:32.149Z,1.00
2019-04-14T15:17:59.942Z,1.00
2019-04-14T15:20:27.398Z,1.00
2019-04-14T15:22:55.578Z,1.00
2019-04-14T15:25:22.759Z,1.00
2019-04-14T15:27:50.671Z,1.00
2019-04-14T15:30:20.116Z,1.00
2019-04-14T15:32:48.161Z,1.00
2019-04-14T15:35:15.841Z,1.00
2019-04-14T15:37:44.160Z,1.00
2019-04-14T15:40:14.047Z,1.00
2019-04-14T15:42:41.899Z,1.00
2019-04-14T15:45:10.154Z,1.00
2019-04-14T15:47:37.525Z,1.00
2019-04-14T15:50:05.933Z,1.00
2019-04-14T15:52:36.948Z,1.00
2019-04-14T15:55:04.405Z,1.00
2019-04-14T15:57:50.194Z,1.00
2019-04-14T16:00:33.894Z,1.00
2019-04-14T16:03:36.219Z,1.00
2019-04-14T16:06:10.378Z,1.00
2019-04-14T16:08:46.946Z,1.00
2019-04-14T16:11:31.052Z,1.00
2019-04-14T16:14:22.456Z,1.00
2019-04-14T16:17:31.799Z,1.00
2019-04-14T16:20:04.385Z,1.00
2019-04-14T16:22:31.628Z,1.00
2019-04-14T16:25:03.594Z,1.00
2019-04-14T16:27:42.923Z,1.00
2019-04-14T16:30:22.307Z,1.00
2019-04-14T16:33:16.808Z,1.00
2019-04-14T16:35:45.958Z,1.00
2019-04-14T16:38:14.335Z,1.00
2019-04-14T16:40:43.374Z,1.00
2019-04-14T16:43:11.827Z,1.00
2019-04-14T16:45:44.487Z,1.00
2019-04-14T16:48:13.390Z,1.00
2019-04-14T16:50:41.426Z,1.00
2019-04-14T16:53:31.427Z,1.00
2019-04-14T16:56:05.587Z,1.00
2019-04-14T16:58:42.259Z,1.00
2019-04-14T17:01:12.916Z,1.00
2019-04-14T17:03:40.206Z,1.00
2019-04-14T17:06:07.691Z,1.00
2019-04-14T17:08:35.451Z,1.00
2019-04-14T17:11:03.118Z,1.00
2019-04-14T17:13:33.826Z,1.00
2019-04-14T17:16:20.221Z,1.00
2019-04-14T17:19:07.859Z,1.00
2019-04-14T17:21:58.150Z,1.00
2019-04-14T17:24:43.841Z,1.00
2019-04-14T17:27:30.140Z,1.00
2019-04-14T17:30:09.273Z,1.00
2019-04-14T17:32:42.474Z,1.00
2019-04-14T17:35:27.334Z,1.00
2019-04-14T17:38:07.587Z,1.00
2019-04-14T17:41:04.745Z,1.00
2019-04-14T17:43:40.541Z,1.00
2019-04-14T17:46:21.163Z,1.00
2019-04-14T17:49:17.514Z,1.00
2019-04-14T17:52:06.642Z,1.00
2019-04-14T17:55:13.443Z,1.00
2019-04-14T17:58:13.059Z,1.00
2019-04-14T18:00:59.603Z,1.00
2019-04-14T18:03:33.195Z,1.00
2019-04-14T18:06:06.073Z,1.00
2019-04-14T18:09:04.837Z,1.00
2019-04-14T18:12:01.826Z,1.00
2019-04-14T18:14:41.334Z,1.00
2019-04-14T18:17:25.190Z,1.00
2019-04-14T18:20:00.253Z,1.00
2019-04-14T18:22:28.223Z,1.00
2019-04-14T18:24:57.328Z,1.00
2019-04-14T18:27:25.291Z,1.00
2019-04-14T18:29:58.718Z,1.00
2019-04-14T18:32:35.605Z,1.00
2019-04-14T18:35:22.882Z,1.00
2019-04-14T18:38:08.217Z,1.00
2019-04-14T18:40:57.757Z,1.00
2019-04-14T18:43:44.423Z,1.00
2019-04-14T18:46:30.818Z,1.00
2019-04-14T18:49:04.155Z,1.00
2019-04-14T18:51:50.102Z,1.00
2019-04-14T18:54:28.233Z,1.00
2019-04-14T18:57:15.823Z,1.00
2019-04-14T18:59:48.449Z,1.00
2019-04-14T19:02:18.122Z,1.00
2019-04-14T19:04:46.183Z,1.00
2019-04-14T19:07:14.427Z,1.00
2019-04-14T19:09:42.571Z,1.00
2019-04-14T19:12:30.391Z,1.00
2019-04-14T19:15:09.504Z,1.00
2019-04-14T19:17:53.489Z,1.00
2019-04-14T19:20:21.676Z,1.00
2019-04-14T19:22:49.938Z,1.00
2019-04-14T19:25:24.775Z,1.00
2019-04-14T19:27:53.168Z,1.00
2019-04-14T19:30:21.405Z,1.00
2019-04-14T19:32:49.488Z,1.00
2019-04-14T19:35:17.759Z,1.00
2019-04-14T19:37:46.134Z,1.00
2019-04-14T19:40:14.413Z,1.00
2019-04-14T19:42:42.919Z,1.00
2019-04-14T19:45:12.907Z,1.00
2019-04-14T19:47:41.079Z,1.00
2019-04-14T19:50:09.385Z,1.00
2019-04-14T19:52:37.595Z,1.00
2019-04-14T19:55:06.066Z,1.00
2019-04-14T19:57:34.150Z,1.00
2019-04-14T20:00:03.115Z,1.00
2019-04-14T20:02:31.372Z,1.00
2019-04-14T20:04:59.693Z,1.00
2019-04-14T20:07:27.909Z,1.00
2019-04-14T20:09:56.525Z,1.00
2019-04-14T20:12:25.095Z,1.00
2019-04-14T20:14:53.224Z,1.00
2019-04-14T20:17:39.930Z,1.00
2019-04-14T20:20:33.475Z,1.00
2019-04-14T20:23:21.550Z,1.00
2019-04-14T20:26:03.238Z,1.00
2019-04-14T20:28:43.029Z,1.00
2019-04-14T20:31:27.998Z,1.00
2019-04-14T20:33:59.188Z,1.00
2019-04-14T20:36:27.144Z,1.00
2019-04-14T20:38:58.586Z,1.00
2019-04-14T20:41:26.567Z,1.00
2019-04-14T20:43:54.711Z,1.00
2019-04-14T20:46:22.845Z,1.00
2019-04-14T20:48:50.775Z,1.00
2019-04-14T20:51:22.234Z,1.00
2019-04-14T20:53:52.194Z,1.00
2019-04-14T20:56:19.434Z,1.00
2019-04-14T20:58:46.592Z,1.00
2019-04-14T21:01:14.448Z,1.00
2019-04-14T21:04:07.388Z,1.00
2019-04-14T21:06:55.313Z,1.00
2019-04-14T21:09:42.356Z,1.00
2019-04-14T21:12:20.668Z,1.00
2019-04-14T21:15:14.331Z,1.00
2019-04-14T21:18:00.933Z,1.00
2019-04-14T21:21:06.591Z,1.00
2019-04-14T21:23:50.967Z,1.00
2019-04-14T21:26:34.190Z,1.00
2019-04-14T21:29:09.348Z,1.00
2019-04-14T21:31:42.462Z,1.00
2019-04-14T21:34:17.909Z,1.00
2019-04-14T21:37:06.310Z,1.00
2019-04-14T21:39:54.151Z,1.00
2019-04-14T21:42:22.173Z,1.00
2019-04-14T21:44:50.139Z,1.00
2019-04-14T21:47:18.190Z,1.00
2019-04-14T21:49:46.279Z,1.00
2019-04-14T21:52:33.988Z,1.00
2019-04-14T21:55:02.458Z,1.00
2019-04-14T21:57:52.830Z,1.00
2019-04-14T22:00:57.415Z,1.00
2019-04-14T22:03:34.322Z,1.00
2019-04-14T22:06:12.235Z,1.00
2019-04-14T22:08:44.803Z,1.00
2019-04-14T22:11:17.465Z,1.00
2019-04-14T22:13:45.570Z,1.00
2019-04-14T22:16:13.710Z,1.00
2019-04-14T22:18:41.895Z,1.00
2019-04-14T22:21:10.077Z,1.00
2019-04-14T22:23:38.192Z,1.00
2019-04-14T22:26:07.090Z,1.00
2019-04-14T22:28:35.344Z,1.00
2019-04-14T22:31:03.706Z,1.00
2019-04-14T22:33:32.152Z,1.00
2019-04-14T22:36:00.349Z,1.00
2019-04-14T22:38:28.328Z,1.00
2019-04-14T22:40:56.408Z,1.00
2019-04-14T22:43:24.343Z,1.00
2019-04-14T22:45:52.789Z,1.00
2019-04-14T22:48:21.004Z,1.00
2019-04-14T22:50:49.246Z,1.00
2019-04-14T22:53:17.339Z,1.00
2019-04-14T22:55:45.489Z,1.00
2019-04-14T22:58:13.734Z,1.00
2019-04-14T23:00:55.230Z,1.00
2019-04-14T23:03:40.479Z,1.00
2019-04-14T23:06:33.690Z,1.00
2019-04-14T23:09:15.653Z,1.00
2019-04-14T23:11:52.724Z,1.00
2019-04-14T23:14:27.790Z,1.00
2019-04-14T23:17:17.135Z,1.00
2019-04-14T23:19:48.665Z,1.00
2019-04-14T23:22:22.187Z,1.00
2019-04-14T23:24:50.209Z,1.00
2019-04-14T23:27:18.258Z,1.00
2019-04-14T23:29:46.228Z,1.00
2019-04-14T23:32:14.587Z,1.00
2019-04-14T23:34:43.443Z,1.00
2019-04-14T23:37:12.188Z,1.00
2019-04-14T23:39:40.562Z,1.00
2019-04-14T23:42:09.396Z,1.00
2019-04-14T23:44:37.894Z,1.00
2019-04-14T23:47:06.818Z,1.00
2019-04-14T23:49:36.135Z,1.00
2019-04-14T23:52:03.292Z,1.00
2019-04-14T23:54:34.682Z,1.00
2019-04-14T23:57:06.023Z,1.00
2019-04-14T23:59:33.389Z,1.00
